sensor_id;sensor_type;location;lat;lon;timestamp;P1;durP1;ratioP1;P2;durP2;ratioP2
10535;SDS011;5316;49.538;8.352;2022-12-11T00:02:18;37.57;;;25.00;;
10535;SDS011;5316;49.538;8.352;2022-12-11T00:04:45;37.63;;;24.43;;
10535;SDS011;5316;49.538;8.352;2022-12-11T00:07:12;37.40;;;25.57;;
10535;SDS011;5316;49.538;8.352;2022-12-11T00:09:39;39.23;;;24.87;;
10535;SDS011;5316;49.538;8.352;2022-12-11T00:12:07;35.70;;;24.20;;
10535;SDS011;5316;49.538;8.352;2022-12-11T00:14:34;38.60;;;23.97;;
10535;SDS011;5316;49.538;8.352;2022-12-11T00:17:01;33.97;;;23.23;;
10535;SDS011;5316;49.538;8.352;2022-12-11T00:19:28;32.93;;;22.10;;
10535;SDS011;5316;49.538;8.352;2022-12-11T00:21:55;34.07;;;22.83;;
10535;SDS011;5316;49.538;8.352;2022-12-11T00:24:22;31.30;;;22.43;;
10535;SDS011;5316;49.538;8.352;2022-12-11T00:26:49;33.17;;;23.10;;
10535;SDS011;5316;49.538;8.352;2022-12-11T00:29:17;35.37;;;22.30;;
10535;SDS011;5316;49.538;8.352;2022-12-11T00:31:44;33.83;;;22.93;;
10535;SDS011;5316;49.538;8.352;2022-12-11T00:34:10;30.73;;;20.93;;
10535;SDS011;5316;49.538;8.352;2022-12-11T00:36:37;28.60;;;19.13;;
10535;SDS011;5316;49.538;8.352;2022-12-11T00:39:04;26.13;;;19.07;;
10535;SDS011;5316;49.538;8.352;2022-12-11T00:41:31;28.33;;;18.67;;
10535;SDS011;5316;49.538;8.352;2022-12-11T00:43:58;23.27;;;17.03;;
10535;SDS011;5316;49.538;8.352;2022-12-11T00:46:26;26.90;;;17.13;;
10535;SDS011;5316;49.538;8.352;2022-12-11T00:48:53;24.87;;;17.80;;
10535;SDS011;5316;49.538;8.352;2022-12-11T00:51:20;23.67;;;17.53;;
10535;SDS011;5316;49.538;8.352;2022-12-11T00:53:46;23.37;;;17.00;;
10535;SDS011;5316;49.538;8.352;2022-12-11T00:56:14;24.93;;;17.03;;
10535;SDS011;5316;49.538;8.352;2022-12-11T00:58:43;22.43;;;16.37;;
10535;SDS011;5316;49.538;8.352;2022-12-11T01:01:10;20.80;;;14.73;;
10535;SDS011;5316;49.538;8.352;2022-12-11T01:03:40;21.03;;;14.40;;
10535;SDS011;5316;49.538;8.352;2022-12-11T01:06:07;19.80;;;14.53;;
10535;SDS011;5316;49.538;8.352;2022-12-11T01:08:39;22.27;;;16.17;;
10535;SDS011;5316;49.538;8.352;2022-12-11T01:11:06;19.23;;;14.00;;
10535;SDS011;5316;49.538;8.352;2022-12-11T01:13:33;21.10;;;14.73;;
10535;SDS011;5316;49.538;8.352;2022-12-11T01:16:04;20.67;;;14.93;;
10535;SDS011;5316;49.538;8.352;2022-12-11T01:18:32;24.73;;;15.63;;
10535;SDS011;5316;49.538;8.352;2022-12-11T01:21:00;22.47;;;15.80;;
10535;SDS011;5316;49.538;8.352;2022-12-11T01:23:31;19.83;;;14.63;;
10535;SDS011;5316;49.538;8.352;2022-12-11T01:26:02;20.97;;;14.90;;
10535;SDS011;5316;49.538;8.352;2022-12-11T01:28:30;19.87;;;15.27;;
10535;SDS011;5316;49.538;8.352;2022-12-11T01:30:57;21.17;;;15.90;;
10535;SDS011;5316;49.538;8.352;2022-12-11T01:33:24;23.37;;;16.37;;
10535;SDS011;5316;49.538;8.352;2022-12-11T01:35:50;23.33;;;16.70;;
10535;SDS011;5316;49.538;8.352;2022-12-11T01:38:18;22.23;;;16.60;;
10535;SDS011;5316;49.538;8.352;2022-12-11T01:40:45;24.37;;;16.77;;
10535;SDS011;5316;49.538;8.352;2022-12-11T01:43:13;21.70;;;16.27;;
10535;SDS011;5316;49.538;8.352;2022-12-11T01:45:39;22.77;;;17.07;;
10535;SDS011;5316;49.538;8.352;2022-12-11T01:48:09;25.40;;;17.10;;
10535;SDS011;5316;49.538;8.352;2022-12-11T01:50:41;26.43;;;18.80;;
10535;SDS011;5316;49.538;8.352;2022-12-11T01:53:11;32.57;;;21.63;;
10535;SDS011;5316;49.538;8.352;2022-12-11T01:55:42;30.87;;;20.93;;
10535;SDS011;5316;49.538;8.352;2022-12-11T01:58:11;30.30;;;21.07;;
10535;SDS011;5316;49.538;8.352;2022-12-11T02:00:38;30.47;;;20.10;;
10535;SDS011;5316;49.538;8.352;2022-12-11T02:03:05;32.57;;;21.33;;
10535;SDS011;5316;49.538;8.352;2022-12-11T02:05:31;30.60;;;21.80;;
10535;SDS011;5316;49.538;8.352;2022-12-11T02:07:59;27.63;;;20.47;;
10535;SDS011;5316;49.538;8.352;2022-12-11T02:10:29;30.37;;;20.07;;
10535;SDS011;5316;49.538;8.352;2022-12-11T02:13:06;31.77;;;20.90;;
10535;SDS011;5316;49.538;8.352;2022-12-11T02:15:39;32.23;;;20.67;;
10535;SDS011;5316;49.538;8.352;2022-12-11T02:18:16;28.97;;;19.10;;
10535;SDS011;5316;49.538;8.352;2022-12-11T02:20:52;29.03;;;19.90;;
10535;SDS011;5316;49.538;8.352;2022-12-11T02:23:32;27.70;;;18.90;;
10535;SDS011;5316;49.538;8.352;2022-12-11T02:26:24;28.03;;;19.40;;
10535;SDS011;5316;49.538;8.352;2022-12-11T02:29:03;29.07;;;19.70;;
10535;SDS011;5316;49.538;8.352;2022-12-11T02:31:33;29.50;;;18.80;;
10535;SDS011;5316;49.538;8.352;2022-12-11T02:34:07;29.80;;;19.90;;
10535;SDS011;5316;49.538;8.352;2022-12-11T02:36:37;28.60;;;18.73;;
10535;SDS011;5316;49.538;8.352;2022-12-11T02:39:08;26.27;;;19.13;;
10535;SDS011;5316;49.538;8.352;2022-12-11T02:41:37;29.43;;;19.70;;
10535;SDS011;5316;49.538;8.352;2022-12-11T02:44:07;25.60;;;18.90;;
10535;SDS011;5316;49.538;8.352;2022-12-11T02:46:37;28.30;;;18.70;;
10535;SDS011;5316;49.538;8.352;2022-12-11T02:49:05;25.00;;;18.67;;
10535;SDS011;5316;49.538;8.352;2022-12-11T02:51:33;26.43;;;19.50;;
10535;SDS011;5316;49.538;8.352;2022-12-11T02:54:04;26.70;;;17.63;;
10535;SDS011;5316;49.538;8.352;2022-12-11T02:56:37;25.17;;;17.47;;
10535;SDS011;5316;49.538;8.352;2022-12-11T02:59:10;24.43;;;18.43;;
10535;SDS011;5316;49.538;8.352;2022-12-11T03:01:40;23.40;;;17.57;;
10535;SDS011;5316;49.538;8.352;2022-12-11T03:04:07;25.80;;;17.57;;
10535;SDS011;5316;49.538;8.352;2022-12-11T03:06:37;27.47;;;18.60;;
10535;SDS011;5316;49.538;8.352;2022-12-11T03:09:08;26.80;;;18.10;;
10535;SDS011;5316;49.538;8.352;2022-12-11T03:11:35;23.50;;;17.60;;
10535;SDS011;5316;49.538;8.352;2022-12-11T03:14:02;23.93;;;17.20;;
10535;SDS011;5316;49.538;8.352;2022-12-11T03:16:32;26.27;;;18.23;;
10535;SDS011;5316;49.538;8.352;2022-12-11T03:19:04;23.90;;;17.57;;
10535;SDS011;5316;49.538;8.352;2022-12-11T03:21:39;22.33;;;16.70;;
10535;SDS011;5316;49.538;8.352;2022-12-11T03:24:12;26.27;;;17.87;;
10535;SDS011;5316;49.538;8.352;2022-12-11T03:26:43;23.60;;;17.47;;
10535;SDS011;5316;49.538;8.352;2022-12-11T03:29:15;25.43;;;17.73;;
10535;SDS011;5316;49.538;8.352;2022-12-11T03:31:48;25.27;;;18.70;;
10535;SDS011;5316;49.538;8.352;2022-12-11T03:34:21;25.63;;;18.00;;
10535;SDS011;5316;49.538;8.352;2022-12-11T03:36:51;27.17;;;18.87;;
10535;SDS011;5316;49.538;8.352;2022-12-11T03:39:21;29.40;;;17.80;;
10535;SDS011;5316;49.538;8.352;2022-12-11T03:41:52;25.70;;;17.80;;
10535;SDS011;5316;49.538;8.352;2022-12-11T03:44:20;27.63;;;19.03;;
10535;SDS011;5316;49.538;8.352;2022-12-11T03:46:50;25.43;;;17.87;;
10535;SDS011;5316;49.538;8.352;2022-12-11T03:49:18;26.87;;;18.60;;
10535;SDS011;5316;49.538;8.352;2022-12-11T03:51:49;24.97;;;17.43;;
10535;SDS011;5316;49.538;8.352;2022-12-11T03:54:18;25.77;;;18.43;;
10535;SDS011;5316;49.538;8.352;2022-12-11T03:56:45;26.20;;;18.13;;
10535;SDS011;5316;49.538;8.352;2022-12-11T03:59:14;27.87;;;19.27;;
10535;SDS011;5316;49.538;8.352;2022-12-11T04:01:41;28.07;;;20.03;;
10535;SDS011;5316;49.538;8.352;2022-12-11T04:07:01;27.30;;;19.57;;
10535;SDS011;5316;49.538;8.352;2022-12-11T04:09:28;31.20;;;20.40;;
10535;SDS011;5316;49.538;8.352;2022-12-11T04:11:55;28.57;;;19.77;;
10535;SDS011;5316;49.538;8.352;2022-12-11T04:14:22;27.93;;;19.67;;
10535;SDS011;5316;49.538;8.352;2022-12-11T04:17:06;31.93;;;20.63;;
10535;SDS011;5316;49.538;8.352;2022-12-11T04:19:35;33.40;;;22.07;;
10535;SDS011;5316;49.538;8.352;2022-12-11T04:22:20;30.90;;;22.03;;
10535;SDS011;5316;49.538;8.352;2022-12-11T04:25:04;34.73;;;21.70;;
10535;SDS011;5316;49.538;8.352;2022-12-11T04:27:33;33.83;;;23.23;;
10535;SDS011;5316;49.538;8.352;2022-12-11T04:30:16;33.20;;;24.20;;
10535;SDS011;5316;49.538;8.352;2022-12-11T04:32:45;34.63;;;23.47;;
10535;SDS011;5316;49.538;8.352;2022-12-11T04:35:14;36.47;;;22.80;;
10535;SDS011;5316;49.538;8.352;2022-12-11T04:37:41;34.27;;;24.00;;
10535;SDS011;5316;49.538;8.352;2022-12-11T04:40:09;38.50;;;23.93;;
10535;SDS011;5316;49.538;8.352;2022-12-11T04:42:37;33.83;;;23.03;;
10535;SDS011;5316;49.538;8.352;2022-12-11T04:45:05;37.93;;;24.07;;
10535;SDS011;5316;49.538;8.352;2022-12-11T04:47:33;36.83;;;23.50;;
10535;SDS011;5316;49.538;8.352;2022-12-11T04:50:00;33.27;;;23.30;;
10535;SDS011;5316;49.538;8.352;2022-12-11T04:52:29;40.57;;;23.73;;
10535;SDS011;5316;49.538;8.352;2022-12-11T04:54:55;36.37;;;23.30;;
10535;SDS011;5316;49.538;8.352;2022-12-11T04:57:22;36.07;;;24.47;;
10535;SDS011;5316;49.538;8.352;2022-12-11T04:59:49;38.93;;;25.00;;
10535;SDS011;5316;49.538;8.352;2022-12-11T05:02:16;35.37;;;24.30;;
10535;SDS011;5316;49.538;8.352;2022-12-11T05:04:43;36.90;;;24.47;;
10535;SDS011;5316;49.538;8.352;2022-12-11T05:07:09;36.37;;;24.63;;
10535;SDS011;5316;49.538;8.352;2022-12-11T05:09:37;39.03;;;24.47;;
10535;SDS011;5316;49.538;8.352;2022-12-11T05:12:06;36.37;;;24.83;;
10535;SDS011;5316;49.538;8.352;2022-12-11T05:14:33;35.27;;;25.17;;
10535;SDS011;5316;49.538;8.352;2022-12-11T05:17:00;41.10;;;25.03;;
10535;SDS011;5316;49.538;8.352;2022-12-11T05:19:27;37.37;;;26.00;;
10535;SDS011;5316;49.538;8.352;2022-12-11T05:21:53;35.33;;;24.20;;
10535;SDS011;5316;49.538;8.352;2022-12-11T05:24:20;35.43;;;24.07;;
10535;SDS011;5316;49.538;8.352;2022-12-11T05:26:48;37.20;;;24.40;;
10535;SDS011;5316;49.538;8.352;2022-12-11T05:29:15;36.97;;;24.70;;
10535;SDS011;5316;49.538;8.352;2022-12-11T05:31:42;42.70;;;25.73;;
10535;SDS011;5316;49.538;8.352;2022-12-11T05:34:08;37.27;;;24.30;;
10535;SDS011;5316;49.538;8.352;2022-12-11T05:36:35;36.00;;;23.90;;
10535;SDS011;5316;49.538;8.352;2022-12-11T05:39:02;33.80;;;24.20;;
10535;SDS011;5316;49.538;8.352;2022-12-11T05:41:29;32.60;;;22.87;;
10535;SDS011;5316;49.538;8.352;2022-12-11T05:43:58;34.47;;;22.90;;
10535;SDS011;5316;49.538;8.352;2022-12-11T05:46:26;33.43;;;22.83;;
10535;SDS011;5316;49.538;8.352;2022-12-11T05:48:55;29.90;;;20.17;;
10535;SDS011;5316;49.538;8.352;2022-12-11T05:51:23;27.47;;;19.70;;
10535;SDS011;5316;49.538;8.352;2022-12-11T05:53:51;30.90;;;20.33;;
10535;SDS011;5316;49.538;8.352;2022-12-11T05:56:19;31.73;;;20.27;;
10535;SDS011;5316;49.538;8.352;2022-12-11T05:58:47;29.30;;;20.17;;
10535;SDS011;5316;49.538;8.352;2022-12-11T06:01:17;29.10;;;19.90;;
10535;SDS011;5316;49.538;8.352;2022-12-11T06:03:45;27.73;;;19.93;;
10535;SDS011;5316;49.538;8.352;2022-12-11T06:06:13;27.27;;;19.87;;
10535;SDS011;5316;49.538;8.352;2022-12-11T06:08:40;25.53;;;18.60;;
10535;SDS011;5316;49.538;8.352;2022-12-11T06:11:07;27.43;;;18.70;;
10535;SDS011;5316;49.538;8.352;2022-12-11T06:13:34;26.30;;;19.23;;
10535;SDS011;5316;49.538;8.352;2022-12-11T06:16:02;26.50;;;18.50;;
10535;SDS011;5316;49.538;8.352;2022-12-11T06:18:33;27.20;;;17.77;;
10535;SDS011;5316;49.538;8.352;2022-12-11T06:21:01;23.93;;;16.93;;
10535;SDS011;5316;49.538;8.352;2022-12-11T06:23:35;24.20;;;17.70;;
10535;SDS011;5316;49.538;8.352;2022-12-11T06:26:02;24.83;;;17.17;;
10535;SDS011;5316;49.538;8.352;2022-12-11T06:28:29;23.97;;;17.10;;
10535;SDS011;5316;49.538;8.352;2022-12-11T06:30:57;26.00;;;17.47;;
10535;SDS011;5316;49.538;8.352;2022-12-11T06:33:24;22.60;;;16.00;;
10535;SDS011;5316;49.538;8.352;2022-12-11T06:35:52;22.13;;;15.63;;
10535;SDS011;5316;49.538;8.352;2022-12-11T06:38:19;24.23;;;17.33;;
10535;SDS011;5316;49.538;8.352;2022-12-11T06:40:46;23.87;;;15.97;;
10535;SDS011;5316;49.538;8.352;2022-12-11T06:43:20;24.90;;;16.27;;
10535;SDS011;5316;49.538;8.352;2022-12-11T06:45:48;22.67;;;16.40;;
10535;SDS011;5316;49.538;8.352;2022-12-11T06:48:15;23.30;;;16.30;;
10535;SDS011;5316;49.538;8.352;2022-12-11T06:50:42;23.03;;;16.67;;
10535;SDS011;5316;49.538;8.352;2022-12-11T06:53:10;26.53;;;17.17;;
10535;SDS011;5316;49.538;8.352;2022-12-11T06:55:39;22.37;;;15.97;;
10535;SDS011;5316;49.538;8.352;2022-12-11T06:58:06;23.87;;;16.97;;
10535;SDS011;5316;49.538;8.352;2022-12-11T07:00:34;23.80;;;16.70;;
10535;SDS011;5316;49.538;8.352;2022-12-11T07:03:01;24.73;;;16.93;;
10535;SDS011;5316;49.538;8.352;2022-12-11T07:05:28;22.60;;;15.37;;
10535;SDS011;5316;49.538;8.352;2022-12-11T07:07:55;25.77;;;17.03;;
10535;SDS011;5316;49.538;8.352;2022-12-11T07:10:23;23.83;;;16.63;;
10535;SDS011;5316;49.538;8.352;2022-12-11T07:12:51;23.73;;;16.67;;
10535;SDS011;5316;49.538;8.352;2022-12-11T07:15:18;25.43;;;17.57;;
10535;SDS011;5316;49.538;8.352;2022-12-11T07:17:45;24.53;;;16.70;;
10535;SDS011;5316;49.538;8.352;2022-12-11T07:20:12;26.03;;;16.07;;
10535;SDS011;5316;49.538;8.352;2022-12-11T07:22:39;24.30;;;16.17;;
10535;SDS011;5316;49.538;8.352;2022-12-11T07:25:06;24.67;;;17.10;;
10535;SDS011;5316;49.538;8.352;2022-12-11T07:27:34;26.30;;;17.47;;
10535;SDS011;5316;49.538;8.352;2022-12-11T07:30:02;24.97;;;16.20;;
10535;SDS011;5316;49.538;8.352;2022-12-11T07:32:29;29.57;;;18.30;;
10535;SDS011;5316;49.538;8.352;2022-12-11T07:34:56;25.20;;;18.10;;
10535;SDS011;5316;49.538;8.352;2022-12-11T07:37:22;28.20;;;18.70;;
10535;SDS011;5316;49.538;8.352;2022-12-11T07:39:50;27.07;;;17.50;;
10535;SDS011;5316;49.538;8.352;2022-12-11T07:42:16;31.97;;;18.70;;
10535;SDS011;5316;49.538;8.352;2022-12-11T07:44:45;67.97;;;23.97;;
10535;SDS011;5316;49.538;8.352;2022-12-11T07:47:11;35.20;;;20.73;;
10535;SDS011;5316;49.538;8.352;2022-12-11T07:49:38;30.33;;;18.80;;
10535;SDS011;5316;49.538;8.352;2022-12-11T07:52:05;29.57;;;18.87;;
10535;SDS011;5316;49.538;8.352;2022-12-11T07:54:32;27.73;;;18.43;;
10535;SDS011;5316;49.538;8.352;2022-12-11T07:56:58;27.73;;;18.30;;
10535;SDS011;5316;49.538;8.352;2022-12-11T07:59:25;26.03;;;18.03;;
10535;SDS011;5316;49.538;8.352;2022-12-11T08:01:54;30.97;;;18.53;;
10535;SDS011;5316;49.538;8.352;2022-12-11T08:04:20;25.40;;;18.37;;
10535;SDS011;5316;49.538;8.352;2022-12-11T08:06:47;26.17;;;18.10;;
10535;SDS011;5316;49.538;8.352;2022-12-11T08:09:14;29.33;;;18.87;;
10535;SDS011;5316;49.538;8.352;2022-12-11T08:11:41;28.63;;;19.43;;
10535;SDS011;5316;49.538;8.352;2022-12-11T08:14:08;28.10;;;18.20;;
10535;SDS011;5316;49.538;8.352;2022-12-11T08:16:35;27.80;;;18.40;;
10535;SDS011;5316;49.538;8.352;2022-12-11T08:19:05;30.53;;;19.10;;
10535;SDS011;5316;49.538;8.352;2022-12-11T08:21:32;34.70;;;20.00;;
10535;SDS011;5316;49.538;8.352;2022-12-11T08:23:59;29.07;;;18.80;;
10535;SDS011;5316;49.538;8.352;2022-12-11T08:26:26;29.20;;;19.33;;
10535;SDS011;5316;49.538;8.352;2022-12-11T08:29:00;28.47;;;18.53;;
10535;SDS011;5316;49.538;8.352;2022-12-11T08:31:27;30.67;;;18.33;;
10535;SDS011;5316;49.538;8.352;2022-12-11T08:33:54;27.43;;;19.83;;
10535;SDS011;5316;49.538;8.352;2022-12-11T08:36:23;29.63;;;19.43;;
10535;SDS011;5316;49.538;8.352;2022-12-11T08:38:50;32.23;;;20.53;;
10535;SDS011;5316;49.538;8.352;2022-12-11T08:41:19;30.97;;;20.10;;
10535;SDS011;5316;49.538;8.352;2022-12-11T08:43:47;30.63;;;19.73;;
10535;SDS011;5316;49.538;8.352;2022-12-11T08:46:16;42.80;;;27.73;;
10535;SDS011;5316;49.538;8.352;2022-12-11T08:48:43;32.80;;;23.40;;
10535;SDS011;5316;49.538;8.352;2022-12-11T08:51:12;36.20;;;25.67;;
10535;SDS011;5316;49.538;8.352;2022-12-11T08:53:43;36.17;;;22.90;;
10535;SDS011;5316;49.538;8.352;2022-12-11T08:56:10;48.13;;;30.53;;
10535;SDS011;5316;49.538;8.352;2022-12-11T08:58:39;49.57;;;30.90;;
10535;SDS011;5316;49.538;8.352;2022-12-11T09:01:07;57.80;;;36.90;;
10535;SDS011;5316;49.538;8.352;2022-12-11T09:03:35;39.93;;;26.30;;
10535;SDS011;5316;49.538;8.352;2022-12-11T09:06:03;40.27;;;25.10;;
10535;SDS011;5316;49.538;8.352;2022-12-11T09:08:31;33.10;;;19.87;;
10535;SDS011;5316;49.538;8.352;2022-12-11T09:11:02;28.30;;;19.10;;
10535;SDS011;5316;49.538;8.352;2022-12-11T09:13:29;25.73;;;18.43;;
10535;SDS011;5316;49.538;8.352;2022-12-11T09:15:56;28.83;;;19.90;;
10535;SDS011;5316;49.538;8.352;2022-12-11T09:18:23;42.37;;;24.90;;
10535;SDS011;5316;49.538;8.352;2022-12-11T09:20:56;128.17;;;50.90;;
10535;SDS011;5316;49.538;8.352;2022-12-11T09:23:24;156.80;;;61.03;;
10535;SDS011;5316;49.538;8.352;2022-12-11T09:25:51;58.50;;;29.70;;
10535;SDS011;5316;49.538;8.352;2022-12-11T09:28:19;39.23;;;23.10;;
10535;SDS011;5316;49.538;8.352;2022-12-11T09:30:49;30.27;;;21.87;;
10535;SDS011;5316;49.538;8.352;2022-12-11T09:33:16;33.73;;;20.83;;
10535;SDS011;5316;49.538;8.352;2022-12-11T09:35:43;33.77;;;21.97;;
10535;SDS011;5316;49.538;8.352;2022-12-11T09:38:09;32.43;;;20.17;;
10535;SDS011;5316;49.538;8.352;2022-12-11T09:40:38;28.97;;;20.03;;
10535;SDS011;5316;49.538;8.352;2022-12-11T09:43:08;34.77;;;21.83;;
10535;SDS011;5316;49.538;8.352;2022-12-11T09:45:45;32.73;;;20.77;;
10535;SDS011;5316;49.538;8.352;2022-12-11T09:48:14;31.27;;;21.73;;
10535;SDS011;5316;49.538;8.352;2022-12-11T09:50:46;30.53;;;20.37;;
10535;SDS011;5316;49.538;8.352;2022-12-11T09:53:19;30.33;;;21.73;;
10535;SDS011;5316;49.538;8.352;2022-12-11T09:55:51;32.50;;;21.67;;
10535;SDS011;5316;49.538;8.352;2022-12-11T09:58:23;31.30;;;20.13;;
10535;SDS011;5316;49.538;8.352;2022-12-11T10:01:02;31.37;;;20.87;;
10535;SDS011;5316;49.538;8.352;2022-12-11T10:03:38;30.27;;;20.47;;
10535;SDS011;5316;49.538;8.352;2022-12-11T10:06:24;31.43;;;20.17;;
10535;SDS011;5316;49.538;8.352;2022-12-11T10:08:59;33.83;;;21.57;;
10535;SDS011;5316;49.538;8.352;2022-12-11T10:11:38;31.60;;;21.23;;
10535;SDS011;5316;49.538;8.352;2022-12-11T10:14:16;46.90;;;27.63;;
10535;SDS011;5316;49.538;8.352;2022-12-11T10:16:53;123.73;;;52.40;;
10535;SDS011;5316;49.538;8.352;2022-12-11T10:19:25;59.70;;;29.80;;
10535;SDS011;5316;49.538;8.352;2022-12-11T10:21:54;58.07;;;30.17;;
10535;SDS011;5316;49.538;8.352;2022-12-11T10:24:24;122.77;;;60.90;;
10535;SDS011;5316;49.538;8.352;2022-12-11T10:26:55;65.03;;;39.80;;
10535;SDS011;5316;49.538;8.352;2022-12-11T10:29:25;44.53;;;28.17;;
10535;SDS011;5316;49.538;8.352;2022-12-11T10:31:54;34.33;;;23.83;;
10535;SDS011;5316;49.538;8.352;2022-12-11T10:34:25;33.87;;;23.20;;
10535;SDS011;5316;49.538;8.352;2022-12-11T10:36:58;33.23;;;23.00;;
10535;SDS011;5316;49.538;8.352;2022-12-11T10:39:24;38.50;;;26.03;;
10535;SDS011;5316;49.538;8.352;2022-12-11T10:41:52;34.30;;;24.97;;
10535;SDS011;5316;49.538;8.352;2022-12-11T10:44:20;31.37;;;22.10;;
10535;SDS011;5316;49.538;8.352;2022-12-11T10:47:01;32.00;;;23.03;;
10535;SDS011;5316;49.538;8.352;2022-12-11T10:49:30;30.93;;;21.60;;
10535;SDS011;5316;49.538;8.352;2022-12-11T10:51:59;33.53;;;23.07;;
10535;SDS011;5316;49.538;8.352;2022-12-11T10:54:31;34.93;;;23.30;;
10535;SDS011;5316;49.538;8.352;2022-12-11T10:57:02;34.57;;;22.47;;
10535;SDS011;5316;49.538;8.352;2022-12-11T10:59:36;33.00;;;22.80;;
10535;SDS011;5316;49.538;8.352;2022-12-11T11:02:16;38.47;;;24.57;;
10535;SDS011;5316;49.538;8.352;2022-12-11T11:04:48;36.50;;;24.23;;
10535;SDS011;5316;49.538;8.352;2022-12-11T11:07:18;35.60;;;24.47;;
10535;SDS011;5316;49.538;8.352;2022-12-11T11:09:47;37.20;;;24.33;;
10535;SDS011;5316;49.538;8.352;2022-12-11T11:12:17;36.10;;;23.17;;
10535;SDS011;5316;49.538;8.352;2022-12-11T11:14:58;38.23;;;24.73;;
10535;SDS011;5316;49.538;8.352;2022-12-11T11:17:32;42.57;;;27.20;;
10535;SDS011;5316;49.538;8.352;2022-12-11T11:20:11;79.20;;;48.43;;
10535;SDS011;5316;49.538;8.352;2022-12-11T11:22:41;61.47;;;36.13;;
10535;SDS011;5316;49.538;8.352;2022-12-11T11:25:14;66.43;;;38.83;;
10535;SDS011;5316;49.538;8.352;2022-12-11T11:27:44;59.43;;;35.33;;
10535;SDS011;5316;49.538;8.352;2022-12-11T11:30:20;42.70;;;27.10;;
10535;SDS011;5316;49.538;8.352;2022-12-11T11:32:56;42.20;;;26.43;;
10535;SDS011;5316;49.538;8.352;2022-12-11T11:35:26;38.60;;;26.00;;
10535;SDS011;5316;49.538;8.352;2022-12-11T11:37:59;41.30;;;26.97;;
10535;SDS011;5316;49.538;8.352;2022-12-11T11:40:32;39.03;;;25.73;;
10535;SDS011;5316;49.538;8.352;2022-12-11T11:43:06;39.37;;;25.80;;
10535;SDS011;5316;49.538;8.352;2022-12-11T11:45:43;44.50;;;26.57;;
10535;SDS011;5316;49.538;8.352;2022-12-11T11:48:23;38.60;;;24.63;;
10535;SDS011;5316;49.538;8.352;2022-12-11T11:50:56;38.40;;;24.63;;
10535;SDS011;5316;49.538;8.352;2022-12-11T11:53:26;44.77;;;26.63;;
10535;SDS011;5316;49.538;8.352;2022-12-11T11:56:00;40.73;;;26.50;;
10535;SDS011;5316;49.538;8.352;2022-12-11T11:58:36;43.30;;;26.50;;
10535;SDS011;5316;49.538;8.352;2022-12-11T12:01:08;42.87;;;26.23;;
10535;SDS011;5316;49.538;8.352;2022-12-11T12:03:41;36.73;;;23.63;;
10535;SDS011;5316;49.538;8.352;2022-12-11T12:06:09;39.63;;;24.30;;
10535;SDS011;5316;49.538;8.352;2022-12-11T12:08:43;44.27;;;26.57;;
10535;SDS011;5316;49.538;8.352;2022-12-11T12:11:19;41.20;;;26.47;;
10535;SDS011;5316;49.538;8.352;2022-12-11T12:13:55;41.30;;;25.13;;
10535;SDS011;5316;49.538;8.352;2022-12-11T12:16:32;44.67;;;26.27;;
10535;SDS011;5316;49.538;8.352;2022-12-11T12:19:08;39.83;;;25.00;;
10535;SDS011;5316;49.538;8.352;2022-12-11T12:21:42;42.57;;;25.00;;
10535;SDS011;5316;49.538;8.352;2022-12-11T12:24:16;40.37;;;24.60;;
10535;SDS011;5316;49.538;8.352;2022-12-11T12:26:55;40.07;;;26.23;;
10535;SDS011;5316;49.538;8.352;2022-12-11T12:29:28;41.97;;;26.53;;
10535;SDS011;5316;49.538;8.352;2022-12-11T12:32:08;40.27;;;25.63;;
10535;SDS011;5316;49.538;8.352;2022-12-11T12:34:49;45.20;;;27.23;;
10535;SDS011;5316;49.538;8.352;2022-12-11T12:37:26;42.63;;;26.47;;
10535;SDS011;5316;49.538;8.352;2022-12-11T12:40:13;41.07;;;25.20;;
10535;SDS011;5316;49.538;8.352;2022-12-11T12:42:46;40.77;;;25.37;;
10535;SDS011;5316;49.538;8.352;2022-12-11T12:45:23;44.03;;;25.97;;
10535;SDS011;5316;49.538;8.352;2022-12-11T12:47:55;46.83;;;27.73;;
10535;SDS011;5316;49.538;8.352;2022-12-11T12:50:24;47.70;;;28.07;;
10535;SDS011;5316;49.538;8.352;2022-12-11T12:52:54;43.33;;;26.90;;
10535;SDS011;5316;49.538;8.352;2022-12-11T12:55:23;47.27;;;28.70;;
10535;SDS011;5316;49.538;8.352;2022-12-11T12:57:53;45.90;;;28.30;;
10535;SDS011;5316;49.538;8.352;2022-12-11T13:00:25;47.80;;;28.67;;
10535;SDS011;5316;49.538;8.352;2022-12-11T13:02:54;45.70;;;28.83;;
10535;SDS011;5316;49.538;8.352;2022-12-11T13:05:22;52.70;;;29.53;;
10535;SDS011;5316;49.538;8.352;2022-12-11T13:07:53;51.07;;;28.87;;
10535;SDS011;5316;49.538;8.352;2022-12-11T13:10:22;49.07;;;29.70;;
10535;SDS011;5316;49.538;8.352;2022-12-11T13:12:53;49.87;;;29.20;;
10535;SDS011;5316;49.538;8.352;2022-12-11T13:15:34;47.93;;;29.73;;
10535;SDS011;5316;49.538;8.352;2022-12-11T13:18:27;47.87;;;28.60;;
10535;SDS011;5316;49.538;8.352;2022-12-11T13:20:58;46.37;;;28.50;;
10535;SDS011;5316;49.538;8.352;2022-12-11T13:23:33;50.77;;;27.97;;
10535;SDS011;5316;49.538;8.352;2022-12-11T13:26:01;47.47;;;27.93;;
10535;SDS011;5316;49.538;8.352;2022-12-11T13:28:31;50.20;;;30.10;;
10535;SDS011;5316;49.538;8.352;2022-12-11T13:34:13;42.77;;;27.07;;
10535;SDS011;5316;49.538;8.352;2022-12-11T13:36:46;45.07;;;26.57;;
10535;SDS011;5316;49.538;8.352;2022-12-11T13:39:15;44.80;;;28.30;;
10535;SDS011;5316;49.538;8.352;2022-12-11T13:41:45;47.40;;;29.53;;
10535;SDS011;5316;49.538;8.352;2022-12-11T13:44:15;47.37;;;27.60;;
10535;SDS011;5316;49.538;8.352;2022-12-11T13:46:46;46.93;;;28.53;;
10535;SDS011;5316;49.538;8.352;2022-12-11T13:49:17;47.87;;;28.77;;
10535;SDS011;5316;49.538;8.352;2022-12-11T13:51:53;50.43;;;29.47;;
10535;SDS011;5316;49.538;8.352;2022-12-11T13:54:22;47.40;;;28.30;;
10535;SDS011;5316;49.538;8.352;2022-12-11T13:56:58;47.07;;;29.57;;
10535;SDS011;5316;49.538;8.352;2022-12-11T13:59:28;46.40;;;27.67;;
10535;SDS011;5316;49.538;8.352;2022-12-11T14:01:59;46.33;;;26.83;;
10535;SDS011;5316;49.538;8.352;2022-12-11T14:04:30;43.60;;;28.40;;
10535;SDS011;5316;49.538;8.352;2022-12-11T14:07:02;47.33;;;28.80;;
10535;SDS011;5316;49.538;8.352;2022-12-11T14:09:32;49.87;;;30.40;;
10535;SDS011;5316;49.538;8.352;2022-12-11T14:12:01;51.27;;;30.07;;
10535;SDS011;5316;49.538;8.352;2022-12-11T14:14:32;51.00;;;30.20;;
10535;SDS011;5316;49.538;8.352;2022-12-11T14:17:05;51.07;;;30.30;;
10535;SDS011;5316;49.538;8.352;2022-12-11T14:19:37;52.93;;;30.40;;
10535;SDS011;5316;49.538;8.352;2022-12-11T14:22:06;51.83;;;30.50;;
10535;SDS011;5316;49.538;8.352;2022-12-11T14:24:47;56.43;;;30.97;;
10535;SDS011;5316;49.538;8.352;2022-12-11T14:27:15;52.27;;;31.60;;
10535;SDS011;5316;49.538;8.352;2022-12-11T14:29:43;50.43;;;30.43;;
10535;SDS011;5316;49.538;8.352;2022-12-11T14:35:12;56.87;;;32.43;;
10535;SDS011;5316;49.538;8.352;2022-12-11T14:37:49;54.67;;;31.53;;
10535;SDS011;5316;49.538;8.352;2022-12-11T14:40:18;56.63;;;30.83;;
10535;SDS011;5316;49.538;8.352;2022-12-11T14:42:49;57.43;;;31.73;;
10535;SDS011;5316;49.538;8.352;2022-12-11T14:45:22;52.60;;;31.57;;
10535;SDS011;5316;49.538;8.352;2022-12-11T14:47:55;55.20;;;31.23;;
10535;SDS011;5316;49.538;8.352;2022-12-11T14:50:25;53.90;;;31.87;;
10535;SDS011;5316;49.538;8.352;2022-12-11T14:52:57;54.03;;;31.70;;
10535;SDS011;5316;49.538;8.352;2022-12-11T14:55:27;56.27;;;32.80;;
10535;SDS011;5316;49.538;8.352;2022-12-11T14:57:57;53.93;;;29.73;;
10535;SDS011;5316;49.538;8.352;2022-12-11T15:00:27;54.13;;;30.37;;